createdAt,value
2019-02-23T00:02:06.269Z,102708.45
2019-02-23T00:04:40.387Z,102720.72
2019-02-23T00:07:09.659Z,102725.98
2019-02-23T00:09:38.914Z,102729.50
2019-02-23T00:12:10.762Z,102730.42
2019-02-23T00:14:42.848Z,102733.91
2019-02-23T00:17:12.092Z,102738.28
2019-02-23T00:19:44.797Z,102740.93
2019-02-23T00:22:14.059Z,102748.35
2019-02-23T00:24:43.294Z,102747.92
2019-02-23T00:27:14.676Z,102750.56
2019-02-23T00:29:43.902Z,102745.80
2019-02-23T00:32:13.718Z,102752.83
2019-02-23T00:34:43.049Z,102754.58
2019-02-23T00:37:12.269Z,102750.23
2019-02-23T00:39:42.007Z,102755.48
2019-02-23T00:42:11.584Z,102756.34
2019-02-23T00:44:43.758Z,102755.94
2019-02-23T00:47:15.444Z,102752.02
2019-02-23T00:49:44.798Z,102749.91
2019-02-23T00:52:34.532Z,102746.42
2019-02-23T00:55:07.268Z,102745.98
2019-02-23T00:57:36.486Z,102749.09
2019-02-23T01:00:10.321Z,102744.77
2019-02-23T01:02:39.992Z,102746.09
2019-02-23T01:05:10.322Z,102756.17
2019-02-23T01:07:39.918Z,102765.82
2019-02-23T01:10:10.277Z,102766.77
2019-02-23T01:12:39.493Z,102774.20
2019-02-23T01:15:12.881Z,102767.23
2019-02-23T01:17:42.200Z,102772.52
2019-02-23T01:20:12.854Z,102774.70
2019-02-23T01:22:42.073Z,102785.59
2019-02-23T01:25:11.324Z,102781.66
2019-02-23T01:27:40.863Z,102776.91
2019-02-23T01:30:11.752Z,102779.96
2019-02-23T01:32:41.021Z,102780.39
2019-02-23T01:35:10.647Z,102775.61
2019-02-23T01:37:39.851Z,102771.70
2019-02-23T01:40:10.720Z,102773.45
2019-02-23T01:42:40.240Z,102773.44
2019-02-23T01:45:13.079Z,102774.36
2019-02-23T01:47:42.397Z,102774.36
2019-02-23T01:50:12.562Z,102769.13
2019-02-23T01:52:41.791Z,102768.26
2019-02-23T01:55:12.076Z,102765.23
2019-02-23T01:57:41.585Z,102764.80
2019-02-23T02:00:12.888Z,102773.53
2019-02-23T02:02:42.258Z,102764.86
2019-02-23T02:05:12.791Z,102764.84
2019-02-23T02:07:43.097Z,102771.85
2019-02-23T02:10:13.176Z,102779.26
2019-02-23T02:12:42.672Z,102771.44
2019-02-23T02:15:13.520Z,102770.99
2019-02-23T02:17:42.779Z,102773.64
2019-02-23T02:20:12.461Z,102773.20
2019-02-23T02:22:41.656Z,102773.66
2019-02-23T02:25:10.905Z,102772.36
2019-02-23T02:27:40.456Z,102780.22
2019-02-23T02:30:11.364Z,102778.92
2019-02-23T02:32:40.610Z,102768.47
2019-02-23T02:35:10.757Z,102772.83
2019-02-23T02:37:39.998Z,102769.36
2019-02-23T02:40:09.704Z,102769.37
2019-02-23T02:42:39.203Z,102769.39
2019-02-23T02:45:09.701Z,102765.91
2019-02-23T02:47:39.006Z,102765.50
2019-02-23T02:50:09.486Z,102775.07
2019-02-23T02:52:38.704Z,102774.22
2019-02-23T02:55:10.002Z,102772.93
2019-02-23T02:57:39.609Z,102784.25
2019-02-23T03:00:10.966Z,102779.45
2019-02-23T03:02:40.217Z,102780.77
2019-02-23T03:05:09.890Z,102771.63
2019-02-23T03:07:39.100Z,102769.88
2019-02-23T03:10:08.464Z,102778.63
2019-02-23T03:12:38.006Z,102776.45
2019-02-23T03:15:07.693Z,102775.57
2019-02-23T03:17:37.035Z,102774.73
2019-02-23T03:20:07.698Z,102786.05
2019-02-23T03:22:36.935Z,102790.44
2019-02-23T03:25:06.307Z,102786.94
2019-02-23T03:27:35.544Z,102788.70
2019-02-23T03:30:07.319Z,102786.94
2019-02-23T03:32:37.190Z,102784.80
2019-02-23T03:35:06.784Z,102785.20
2019-02-23T03:37:36.173Z,102784.80
2019-02-23T03:40:07.645Z,102788.23
2019-02-23T03:42:36.847Z,102788.67
2019-02-23T03:45:06.304Z,102796.52
2019-02-23T03:47:35.833Z,102797.38
2019-02-23T03:50:08.498Z,102789.11
2019-02-23T03:52:37.739Z,102775.63
2019-02-23T03:55:07.045Z,102772.12
2019-02-23T03:57:36.311Z,102771.25
2019-02-23T04:00:09.189Z,102778.67
2019-02-23T04:02:38.447Z,102780.41
2019-02-23T04:05:07.802Z,102779.97
2019-02-23T04:07:37.406Z,102772.14
2019-02-23T04:10:06.888Z,102774.30
2019-02-23T04:12:37.126Z,102782.16
2019-02-23T04:15:06.877Z,102778.23
2019-02-23T04:17:36.130Z,102775.17
2019-02-23T04:20:06.728Z,102773.86
2019-02-23T04:22:37.295Z,102783.45
2019-02-23T04:25:06.732Z,102781.28
2019-02-23T04:27:35.945Z,102775.62
2019-02-23T04:30:06.882Z,102775.17
2019-02-23T04:32:36.597Z,102779.53
2019-02-23T04:35:05.986Z,102770.38
2019-02-23T04:37:35.536Z,102768.20
2019-02-23T04:40:10.082Z,102776.02
2019-02-23T04:42:39.321Z,102769.94
2019-02-23T04:45:08.535Z,102765.16
2019-02-23T04:47:37.802Z,102768.17
2019-02-23T04:50:07.581Z,102769.08
2019-02-23T04:52:36.801Z,102770.38
2019-02-23T04:55:06.282Z,102763.83
2019-02-23T04:57:35.777Z,102756.44
2019-02-23T05:00:06.525Z,102761.63
2019-02-23T05:02:36.045Z,102754.67
2019-02-23T05:05:05.830Z,102755.98
2019-02-23T05:07:35.037Z,102749.02
2019-02-23T05:10:05.077Z,102748.56
2019-02-23T05:12:34.562Z,102745.95
2019-02-23T05:15:04.142Z,102748.98
2019-02-23T05:17:33.377Z,102752.88
2019-02-23T05:20:04.112Z,102758.98
2019-02-23T05:22:33.320Z,102760.29
2019-02-23T05:25:04.191Z,102763.35
2019-02-23T05:27:33.861Z,102755.95
2019-02-23T05:30:03.783Z,102767.27
2019-02-23T05:32:33.025Z,102758.56
2019-02-23T05:35:02.572Z,102751.19
2019-02-23T05:37:31.792Z,102754.22
2019-02-23T05:40:01.045Z,102752.91
2019-02-23T05:42:30.536Z,102753.77
2019-02-23T05:44:59.747Z,102746.79
2019-02-23T05:47:28.997Z,102751.13
2019-02-23T05:49:58.834Z,102747.22
2019-02-23T05:52:28.037Z,102747.64
2019-02-23T05:54:57.291Z,102748.51
2019-02-23T05:57:26.801Z,102758.06
2019-02-23T05:59:56.251Z,102757.64
2019-02-23T06:02:25.486Z,102759.38
2019-02-23T06:04:55.069Z,102763.69
2019-02-23T06:07:24.300Z,102762.41
2019-02-23T06:09:53.559Z,102762.84
2019-02-23T06:12:23.060Z,102771.97
2019-02-23T06:14:52.274Z,102779.36
2019-02-23T06:17:22.422Z,102778.04
2019-02-23T06:19:52.552Z,102785.86
2019-02-23T06:22:21.769Z,102784.13
2019-02-23T06:24:51.015Z,102781.07
2019-02-23T06:27:20.556Z,102778.91
2019-02-23T06:29:49.821Z,102778.48
2019-02-23T06:32:19.081Z,102775.88
2019-02-23T06:34:48.597Z,102778.46
2019-02-23T06:37:17.835Z,102778.04
2019-02-23T06:39:47.096Z,102781.09
2019-02-23T06:42:16.936Z,102782.41
2019-02-23T06:44:46.148Z,102779.80
2019-02-23T06:47:15.394Z,102775.42
2019-02-23T06:49:44.891Z,102768.91
2019-02-23T06:52:14.191Z,102774.12
2019-02-23T06:54:43.482Z,102778.02
2019-02-23T06:57:13.028Z,102773.25
2019-02-23T06:59:42.282Z,102771.94
2019-02-23T07:02:11.829Z,102768.91
2019-02-23T07:04:41.061Z,102774.10
2019-02-23T07:07:10.290Z,102776.30
2019-02-23T07:09:39.858Z,102775.42
2019-02-23T07:12:09.054Z,102777.19
2019-02-23T07:14:38.263Z,102778.94
2019-02-23T07:17:07.799Z,102786.78
2019-02-23T07:19:37.934Z,102785.05
2019-02-23T07:22:15.090Z,102790.70
2019-02-23T07:24:38.107Z,102800.70
2019-02-23T07:27:07.352Z,102798.12
2019-02-23T07:29:36.563Z,102807.67
2019-02-23T07:32:09.411Z,102816.81
2019-02-23T07:34:38.638Z,102816.80
2019-02-23T07:37:07.846Z,102822.05
2019-02-23T07:39:38.442Z,102821.19
2019-02-23T07:42:07.685Z,102815.99
2019-02-23T07:44:36.901Z,102819.49
2019-02-23T07:47:06.415Z,102821.69
2019-02-23T07:49:35.624Z,102828.22
2019-02-23T07:52:07.035Z,102826.95
2019-02-23T07:54:36.565Z,102829.59
2019-02-23T07:57:06.176Z,102830.91
2019-02-23T07:59:35.376Z,102830.44
2019-02-23T08:02:05.706Z,102823.14
2019-02-23T08:04:34.937Z,102816.92
2019-02-23T08:07:04.420Z,102814.23
2019-02-23T08:09:34.084Z,102817.06
2019-02-23T08:12:06.506Z,102819.48
2019-02-23T08:14:35.806Z,102820.41
2019-02-23T08:17:05.098Z,102814.02
2019-02-23T08:19:34.322Z,102813.06
2019-02-23T08:22:07.142Z,102810.64
2019-02-23T08:24:36.418Z,102809.14
2019-02-23T08:27:05.671Z,102810.13
2019-02-23T08:29:35.202Z,102821.83
2019-02-23T08:32:07.015Z,102826.36
2019-02-23T08:34:36.302Z,102823.11
2019-02-23T08:37:06.875Z,102823.78
2019-02-23T08:39:36.155Z,102824.13
2019-02-23T08:42:08.458Z,102824.58
2019-02-23T08:44:37.990Z,102821.20
2019-02-23T08:47:07.440Z,102820.42
2019-02-23T08:49:36.690Z,102826.34
2019-02-23T08:52:11.846Z,102828.19
2019-02-23T08:54:41.077Z,102820.41
2019-02-23T08:57:10.310Z,102822.03
2019-02-23T08:59:39.853Z,102824.47
2019-02-23T09:02:09.085Z,102814.81
2019-02-23T09:04:38.396Z,102805.00
2019-02-23T09:07:07.969Z,102806.40
2019-02-23T09:09:37.199Z,102804.56
2019-02-23T09:12:06.487Z,102791.36
2019-02-23T09:14:36.040Z,102788.32
2019-02-23T09:17:05.269Z,102798.52
2019-02-23T09:19:34.533Z,102792.14
2019-02-23T09:22:04.941Z,102795.21
2019-02-23T09:24:34.312Z,102790.11
2019-02-23T09:27:03.563Z,102783.38
2019-02-23T09:29:33.547Z,102784.85
2019-02-23T09:32:03.869Z,102787.26
2019-02-23T09:34:33.116Z,102792.09
2019-02-23T09:37:02.853Z,102778.94
2019-02-23T09:39:32.274Z,102777.41
2019-02-23T09:42:07.408Z,102781.83
2019-02-23T09:44:34.329Z,102781.77
2019-02-23T09:47:03.573Z,102796.80
2019-02-23T09:49:32.801Z,102800.30
2019-02-23T09:52:03.427Z,102793.00
2019-02-23T09:54:32.781Z,102792.47
2019-02-23T09:57:02.258Z,102798.53
2019-02-23T09:59:32.079Z,102804.25
2019-02-23T10:02:03.664Z,102809.63
2019-02-23T10:04:32.703Z,102810.18
2019-02-23T10:07:02.519Z,102806.84
2019-02-23T10:09:31.877Z,102795.83
2019-02-23T10:12:01.323Z,102793.09
2019-02-23T10:14:31.572Z,102790.57
2019-02-23T10:17:00.842Z,102794.95
2019-02-23T10:19:30.371Z,102791.25
2019-02-23T10:22:03.428Z,102781.12
2019-02-23T10:24:32.656Z,102780.62
2019-02-23T10:27:02.416Z,102777.52
2019-02-23T10:29:31.849Z,102778.62
2019-02-23T10:32:02.537Z,102782.13
2019-02-23T10:34:32.125Z,102779.74
2019-02-23T10:37:01.704Z,102775.01
2019-02-23T10:39:30.963Z,102772.02
2019-02-23T10:42:02.600Z,102776.88
2019-02-23T10:44:31.851Z,102774.37
2019-02-23T10:47:01.110Z,102764.41
2019-02-23T10:49:31.802Z,102762.70
2019-02-23T10:52:01.058Z,102751.43
2019-02-23T10:54:30.624Z,102743.50
2019-02-23T10:57:00.229Z,102747.45
2019-02-23T10:59:29.825Z,102730.97
2019-02-23T11:01:59.455Z,102731.48
2019-02-23T11:04:29.072Z,102737.80
2019-02-23T11:06:58.333Z,102721.98
2019-02-23T11:09:35.431Z,102712.19
2019-02-23T11:12:07.223Z,102706.09
2019-02-23T11:14:36.521Z,102706.28
2019-02-23T11:17:05.904Z,102702.75
2019-02-23T11:19:38.217Z,102706.38
2019-02-23T11:22:07.698Z,102710.93
2019-02-23T11:24:36.937Z,102723.03
2019-02-23T11:27:06.497Z,102732.13
2019-02-23T11:29:35.920Z,102742.50
2019-02-23T11:32:06.135Z,102733.38
2019-02-23T11:34:35.789Z,102735.48
2019-02-23T11:37:05.155Z,102732.11
2019-02-23T11:39:34.411Z,102734.35
2019-02-23T11:42:05.115Z,102724.09
2019-02-23T11:44:34.384Z,102720.34
2019-02-23T11:47:03.865Z,102715.44
2019-02-23T11:49:33.447Z,102710.16
2019-02-23T11:52:04.808Z,102722.10
2019-02-23T11:54:34.113Z,102713.70
2019-02-23T11:57:03.508Z,102707.15
2019-02-23T11:59:32.778Z,102701.43
2019-02-23T12:02:05.699Z,102707.09
2019-02-23T12:04:35.039Z,102694.46
2019-02-23T12:07:04.946Z,102694.80
2019-02-23T12:09:34.608Z,102701.65
2019-02-23T12:12:05.228Z,102688.14
2019-02-23T12:14:34.523Z,102689.80
2019-02-23T12:17:04.411Z,102695.63
2019-02-23T12:19:33.693Z,102700.23
2019-02-23T12:22:11.974Z,102694.61
2019-02-23T12:24:35.527Z,102692.73
2019-02-23T12:27:05.122Z,102685.89
2019-02-23T12:29:34.335Z,102684.69
2019-02-23T12:32:14.053Z,102668.47
2019-02-23T12:34:43.289Z,102671.45
2019-02-23T12:37:12.847Z,102668.08
2019-02-23T12:39:42.666Z,102667.95
2019-02-23T12:42:12.153Z,102667.70
2019-02-23T12:44:41.786Z,102665.61
2019-02-23T12:47:11.865Z,102659.66
2019-02-23T12:49:41.608Z,102655.45
2019-02-23T12:52:11.457Z,102654.34
2019-02-23T12:54:41.323Z,102648.73
2019-02-23T12:57:10.816Z,102638.83
2019-02-23T12:59:41.018Z,102645.15
2019-02-23T13:02:11.098Z,102641.11
2019-02-23T13:04:40.684Z,102635.38
2019-02-23T13:07:10.381Z,102631.77
2019-02-23T13:09:50.102Z,102627.94
2019-02-23T13:12:47.675Z,102630.92
2019-02-23T13:15:44.136Z,102619.87
2019-02-23T13:18:43.277Z,102617.66
2019-02-23T13:21:36.682Z,102628.26
2019-02-23T13:24:51.757Z,102640.77
2019-02-23T13:27:47.011Z,102627.34
2019-02-23T13:30:51.527Z,102633.16
2019-02-23T13:34:05.692Z,102630.29
2019-02-23T13:37:05.365Z,102624.85
2019-02-23T13:40:32.826Z,102621.60
2019-02-23T13:43:43.822Z,102618.95
2019-02-23T13:46:38.588Z,102614.37
2019-02-23T13:49:52.445Z,102608.45
2019-02-23T13:52:58.548Z,102600.80
2019-02-23T13:56:15.297Z,102597.34
2019-02-23T13:59:08.658Z,102595.17
2019-02-23T14:02:05.055Z,102589.52
2019-02-23T14:05:09.432Z,102590.08
2019-02-23T14:08:34.788Z,102585.84
2019-02-23T14:11:44.996Z,102582.05
2019-02-23T14:14:32.751Z,102582.13
2019-02-23T14:17:57.014Z,102578.87
2019-02-23T14:21:12.675Z,102574.39
2019-02-23T14:24:18.830Z,102570.89
2019-02-23T14:27:29.969Z,102573.20
2019-02-23T14:30:28.427Z,102575.89
2019-02-23T14:33:40.101Z,102577.32
2019-02-23T14:36:58.987Z,102573.78
2019-02-23T14:40:33.411Z,102584.70
2019-02-23T14:43:47.574Z,102578.72
2019-02-23T14:46:55.424Z,102578.19
2019-02-23T14:49:55.840Z,102587.17
2019-02-23T14:53:03.837Z,102596.10
2019-02-23T14:56:18.282Z,102592.89
2019-02-23T14:59:37.049Z,102602.00
2019-02-23T15:02:33.598Z,102593.34
2019-02-23T15:05:37.625Z,102585.06
2019-02-23T15:08:16.375Z,102582.73
2019-02-23T15:11:12.824Z,102591.03
2019-02-23T15:14:11.610Z,102591.00
2019-02-23T15:17:08.563Z,102594.28
2019-02-23T15:20:22.525Z,102597.38
2019-02-23T15:23:54.156Z,102597.02
2019-02-23T15:27:15.890Z,102596.66
2019-02-23T15:30:26.402Z,102600.88
2019-02-23T15:33:14.521Z,102601.47
2019-02-23T15:36:21.831Z,102605.69
2019-02-23T15:39:41.893Z,102595.77
2019-02-23T15:42:37.591Z,102596.23
2019-02-23T15:45:51.336Z,102590.08
2019-02-23T15:48:45.835Z,102591.22
2019-02-23T15:51:16.198Z,102586.37
2019-02-23T15:53:47.910Z,102594.51
2019-02-23T15:56:17.770Z,102587.14
2019-02-23T15:58:49.140Z,102585.30
2019-02-23T16:01:19.019Z,102586.52
2019-02-23T16:03:48.824Z,102591.83
2019-02-23T16:06:18.902Z,102595.81
2019-02-23T16:08:48.593Z,102599.14
2019-02-23T16:11:18.307Z,102609.11
2019-02-23T16:13:48.402Z,102603.78
2019-02-23T16:16:18.124Z,102609.13
2019-02-23T16:18:47.903Z,102611.09
2019-02-23T16:21:18.331Z,102613.92
2019-02-23T16:23:48.212Z,102617.57
2019-02-23T16:26:18.197Z,102622.42
2019-02-23T16:28:49.349Z,102623.15
2019-02-23T16:31:19.213Z,102621.17
2019-02-23T16:33:48.921Z,102627.23
2019-02-23T16:36:19.161Z,102623.41
2019-02-23T16:38:48.860Z,102623.63
2019-02-23T16:41:19.515Z,102619.68
2019-02-23T16:43:49.647Z,102622.10
2019-02-23T16:46:19.450Z,102623.59
2019-02-23T16:48:49.336Z,102626.00
2019-02-23T16:51:19.901Z,102631.59
2019-02-23T16:53:50.694Z,102635.08
2019-02-23T16:56:20.993Z,102637.53
2019-02-23T16:58:51.328Z,102642.12
2019-02-23T17:01:22.197Z,102638.04
2019-02-23T17:03:51.912Z,102640.33
2019-02-23T17:06:22.106Z,102639.94
2019-02-23T17:08:52.119Z,102643.05
2019-02-23T17:11:21.939Z,102641.73
2019-02-23T17:13:52.101Z,102642.71
2019-02-23T17:16:23.198Z,102643.72
2019-02-23T17:18:52.853Z,102645.97
2019-02-23T17:21:24.192Z,102644.83
2019-02-23T17:23:54.273Z,102648.03
2019-02-23T17:26:24.114Z,102645.84
2019-02-23T17:28:54.222Z,102642.95
2019-02-23T17:31:23.998Z,102644.35
2019-02-23T17:33:53.829Z,102648.51
2019-02-23T17:36:24.331Z,102653.81
2019-02-23T17:38:54.302Z,102656.05
2019-02-23T17:41:23.987Z,102652.58
2019-02-23T17:43:54.278Z,102659.64
2019-02-23T17:46:24.136Z,102665.94
2019-02-23T17:48:53.859Z,102674.79
2019-02-23T17:51:23.977Z,102677.94
2019-02-23T17:53:53.669Z,102687.26
2019-02-23T17:56:23.510Z,102685.14
2019-02-23T17:58:53.578Z,102681.31
2019-02-23T18:01:23.507Z,102682.73
2019-02-23T18:03:53.188Z,102681.09
2019-02-23T18:06:23.676Z,102684.27
2019-02-23T18:08:53.351Z,102689.49
2019-02-23T18:11:23.029Z,102690.84
2019-02-23T18:13:54.159Z,102696.20
2019-02-23T18:16:23.838Z,102698.47
2019-02-23T18:18:53.857Z,102699.34
2019-02-23T18:21:23.787Z,102702.47
2019-02-23T18:23:53.552Z,102706.95
2019-02-23T18:26:23.792Z,102704.36
2019-02-23T18:28:53.478Z,102704.42
2019-02-23T18:31:23.179Z,102701.02
2019-02-23T18:33:52.882Z,102705.87
2019-02-23T18:36:22.598Z,102697.64
2019-02-23T18:38:52.582Z,102709.53
2019-02-23T18:41:22.270Z,102709.59
2019-02-23T18:43:52.018Z,102713.56
2019-02-23T18:46:22.897Z,102709.23
2019-02-23T18:48:52.574Z,102713.21
2019-02-23T18:51:22.415Z,102710.12
2019-02-23T18:53:52.386Z,102710.20
2019-02-23T18:56:29.403Z,102713.36
2019-02-23T18:58:53.739Z,102716.58
2019-02-23T19:01:23.889Z,102704.36
2019-02-23T19:03:53.666Z,102710.11
2019-02-23T19:06:23.795Z,102701.36
2019-02-23T19:08:57.268Z,102704.91
2019-02-23T19:11:30.703Z,102701.48
2019-02-23T19:14:02.276Z,102697.17
2019-02-23T19:16:33.002Z,102699.33
2019-02-23T19:19:04.326Z,102697.20
2019-02-23T19:21:34.926Z,102697.28
2019-02-23T19:24:08.536Z,102690.73
2019-02-23T19:26:38.545Z,102692.52
2019-02-23T19:29:08.589Z,102696.52
2019-02-23T19:31:38.350Z,102691.36
2019-02-23T19:34:08.045Z,102689.14
2019-02-23T19:36:37.821Z,102688.73
2019-02-23T19:39:07.662Z,102685.25
2019-02-23T19:41:37.627Z,102686.55
2019-02-23T19:44:09.531Z,102690.53
2019-02-23T19:46:44.419Z,102693.17
2019-02-23T19:49:14.986Z,102689.27
2019-02-23T19:51:44.730Z,102690.19
2019-02-23T19:54:14.478Z,102688.00
2019-02-23T19:56:46.861Z,102683.28
2019-02-23T19:59:16.117Z,102687.68
2019-02-23T20:01:46.113Z,102688.59
2019-02-23T20:04:15.807Z,102689.89
2019-02-23T20:06:45.780Z,102693.38
2019-02-23T20:09:15.679Z,102696.91
2019-02-23T20:11:45.370Z,102702.59
2019-02-23T20:14:16.825Z,102704.80
2019-02-23T20:16:46.583Z,102707.91
2019-02-23T20:19:16.290Z,102714.05
2019-02-23T20:21:46.011Z,102714.47
2019-02-23T20:24:15.746Z,102713.17
2019-02-23T20:26:45.738Z,102708.80
2019-02-23T20:29:15.519Z,102713.63
2019-02-23T20:31:45.346Z,102712.34
2019-02-23T20:34:15.061Z,102714.15
2019-02-23T20:36:47.127Z,102714.13
2019-02-23T20:39:17.035Z,102711.55
2019-02-23T20:41:46.726Z,102711.13
2019-02-23T20:44:16.444Z,102705.49
2019-02-23T20:46:46.822Z,102702.45
2019-02-23T20:49:16.555Z,102697.67
2019-02-23T20:51:47.167Z,102699.47
2019-02-23T20:54:17.666Z,102702.54
2019-02-23T20:56:47.325Z,102699.93
2019-02-23T20:59:17.005Z,102698.66
2019-02-23T21:01:46.986Z,102703.91
2019-02-23T21:04:16.674Z,102700.03
2019-02-23T21:06:46.415Z,102696.11
2019-02-23T21:09:16.503Z,102694.84
2019-02-23T21:11:46.163Z,102689.20
2019-02-23T21:14:16.111Z,102684.35
2019-02-23T21:16:46.229Z,102686.12
2019-02-23T21:19:16.380Z,102689.20
2019-02-23T21:21:46.554Z,102700.14
2019-02-23T21:24:16.672Z,102699.28
2019-02-23T21:26:46.856Z,102703.66
2019-02-23T21:29:16.487Z,102702.80
2019-02-23T21:31:46.485Z,102703.21
2019-02-23T21:34:16.121Z,102709.31
2019-02-23T21:36:45.749Z,102704.55
2019-02-23T21:39:15.979Z,102708.89
2019-02-23T21:41:45.592Z,102713.69
2019-02-23T21:44:15.193Z,102710.66
2019-02-23T21:46:45.472Z,102705.84
2019-02-23T21:49:15.143Z,102714.17
2019-02-23T21:51:45.134Z,102708.53
2019-02-23T21:54:15.975Z,102700.30
2019-02-23T21:56:45.565Z,102696.80
2019-02-23T21:59:15.220Z,102699.86
2019-02-23T22:01:45.207Z,102696.39
2019-02-23T22:04:15.219Z,102700.73
2019-02-23T22:06:44.862Z,102698.56
2019-02-23T22:09:14.981Z,102700.74
2019-02-23T22:11:44.682Z,102705.61
2019-02-23T22:14:14.862Z,102700.78
2019-02-23T22:16:44.668Z,102702.98
2019-02-23T22:19:14.223Z,102692.53
2019-02-23T22:21:43.966Z,102696.47
2019-02-23T22:24:13.851Z,102700.84
2019-02-23T22:26:43.429Z,102701.27
2019-02-23T22:29:12.768Z,102695.61
2019-02-23T22:31:43.994Z,102704.36
2019-02-23T22:34:13.428Z,102698.70
2019-02-23T22:36:42.700Z,102706.99
2019-02-23T22:39:12.315Z,102698.27
2019-02-23T22:41:49.389Z,102707.01
2019-02-23T22:44:12.709Z,102706.15
2019-02-23T22:46:42.456Z,102710.94
2019-02-23T22:49:11.672Z,102714.45
2019-02-23T22:51:40.984Z,102717.49
2019-02-23T22:54:10.540Z,102711.83
2019-02-23T22:56:40.640Z,102716.23
2019-02-23T22:59:09.893Z,102714.92
2019-02-23T23:01:39.599Z,102726.26
2019-02-23T23:04:08.954Z,102729.73
2019-02-23T23:06:38.186Z,102727.57
2019-02-23T23:09:14.925Z,102729.31
2019-02-23T23:11:44.145Z,102730.61
2019-02-23T23:14:13.682Z,102726.27
2019-02-23T23:16:45.502Z,102729.75
2019-02-23T23:19:14.720Z,102731.98
2019-02-23T23:21:44.460Z,102724.55
2019-02-23T23:24:13.908Z,102724.98
2019-02-23T23:26:43.441Z,102719.77
2019-02-23T23:29:12.712Z,102718.92
2019-02-23T23:31:43.261Z,102718.91
2019-02-23T23:34:12.757Z,102720.24
2019-02-23T23:36:42.105Z,102722.87
2019-02-23T23:39:11.404Z,102720.27
2019-02-23T23:41:41.020Z,102721.13
2019-02-23T23:44:10.242Z,102728.09
2019-02-23T23:46:39.503Z,102725.48
2019-02-23T23:49:09.033Z,102725.08
2019-02-23T23:51:38.278Z,102728.56
2019-02-23T23:54:10.458Z,102729.88
2019-02-23T23:56:40.204Z,102727.27
2019-02-23T23:59:10.540Z,102721.59
